Vankleek Hill, Canada
Current Conditions -  °F | °C
As of 12:00 AM on Monday 20 Oct 2014 (Local Time) from CYMX Reporting Station
Broken Clouds Broken Clouds  
Wind Chill: 37°   Ceiling: 4000
Heat Index: 37°   Visibility: 25mi
Dew Point: 25°   Wind: 2mph
Humidity: 60%   Direction: NA
Pressure: 29.97"   Gusts: NA
Location:  45.52°N, 74.65°W
Report Text: CYMX 200400Z VRB02KT 25SM BKN040 03/M04 A2997 RMK SC7 SLP153
Loading
Personal Weather Stations






























Interactive Weather Map
Tropical Storm Tracking
New forecast layout! Learn more

10-Day Weather Forecast

Advertisements
Track Severe Weather on mobile